Time,TemperatureF,DewpointF,PressureIn,WindDirection,WindDirectionDegrees,WindSpeedMPH,WindSpeedGustMPH,Humidity,HourlyPrecipIn,Conditions,Clouds,dailyrainin,SolarRadiationWatts/m^2,SoftwareType,DateUTC
2013-03-04 00:00:00,38.8,35.0,30.16,West,279,0.0,-999.0,86,-99.99,,,0.00,0,weatherlink.com 1.10,2013-03-04 05:00:00,
2013-03-04 00:15:00,37.9,34.0,30.16,West,279,0.0,-999.0,87,-99.99,,,0.00,0,weatherlink.com 1.10,2013-03-04 05:15:00,
2013-03-04 00:30:00,37.3,34.0,30.17,West,278,0.0,-999.0,88,-99.99,,,0.00,0,weatherlink.com 1.10,2013-03-04 05:30:00,
2013-03-04 00:45:00,36.6,33.0,30.16,West,278,0.0,-999.0,88,-99.99,,,0.00,0,weatherlink.com 1.10,2013-03-04 05:45:00,
2013-03-04 01:00:00,36.3,34.0,30.16,West,278,0.0,-999.0,90,-99.99,,,0.00,0,weatherlink.com 1.10,2013-03-04 06:00:00,
2013-03-04 01:15:00,35.9,34.0,30.15,West,278,0.0,-999.0,91,-99.99,,,0.00,0,weatherlink.com 1.10,2013-03-04 06:15:00,
2013-03-04 01:30:00,36.5,35.0,30.16,West,278,0.0,-999.0,94,-99.99,,,0.00,0,weatherlink.com 1.10,2013-03-04 06:30:00,
2013-03-04 01:45:00,37.0,36.0,30.15,West,278,0.0,-999.0,96,-99.99,,,0.00,0,weatherlink.com 1.10,2013-03-04 06:45:00,
2013-03-04 02:00:00,36.8,36.0,30.15,West,278,0.0,-999.0,96,-99.99,,,0.00,0,weatherlink.com 1.10,2013-03-04 07:00:00,
2013-03-04 02:15:00,36.5,36.0,30.15,West,278,0.0,-999.0,97,-99.99,,,0.00,0,weatherlink.com 1.10,2013-03-04 07:15:00,
2013-03-04 02:30:00,37.8,37.0,30.14,West,278,0.0,-999.0,98,-99.99,,,0.00,0,weatherlink.com 1.10,2013-03-04 07:30:00,
2013-03-04 02:45:00,37.0,36.0,30.14,West,278,0.0,-999.0,97,-99.99,,,0.00,0,weatherlink.com 1.10,2013-03-04 07:45:00,
2013-03-04 03:00:00,36.3,36.0,30.14,West,279,0.0,-999.0,98,-99.99,,,0.00,0,weatherlink.com 1.10,2013-03-04 08:00:00,
2013-03-04 03:15:00,36.0,36.0,30.14,West,279,0.0,-999.0,99,-99.99,,,0.00,0,weatherlink.com 1.10,2013-03-04 08:15:00,
2013-03-04 03:30:00,36.9,37.0,30.14,West,279,0.0,-999.0,100,-99.99,,,0.00,0,weatherlink.com 1.10,2013-03-04 08:30:00,
2013-03-04 03:45:00,36.0,36.0,30.13,West,279,0.0,-999.0,100,-99.99,,,0.00,0,weatherlink.com 1.10,2013-03-04 08:45:00,
2013-03-04 04:00:00,36.0,36.0,30.13,West,279,0.0,-999.0,100,-99.99,,,0.00,0,weatherlink.com 1.10,2013-03-04 09:00:00,
2013-03-04 04:15:00,35.8,36.0,30.14,West,279,0.0,-999.0,100,-99.99,,,0.00,0,weatherlink.com 1.10,2013-03-04 09:15:00,
2013-03-04 04:30:00,35.9,36.0,30.14,West,279,0.0,-999.0,100,-99.99,,,0.00,0,weatherlink.com 1.10,2013-03-04 09:30:00,
2013-03-04 04:45:00,35.8,36.0,30.14,West,279,0.0,-999.0,100,-99.99,,,0.00,0,weatherlink.com 1.10,2013-03-04 09:45:00,
2013-03-04 05:02:00,36.8,37.0,30.15,West,279,0.0,-999.0,100,-99.99,,,0.00,0,weatherlink.com 1.10,2013-03-04 10:02:00,
2013-03-04 05:15:00,35.6,36.0,30.16,West,279,0.0,-999.0,100,-99.99,,,0.00,0,weatherlink.com 1.10,2013-03-04 10:15:00,
2013-03-04 05:30:00,35.5,36.0,30.16,West,279,0.0,-999.0,100,-99.99,,,0.00,0,weatherlink.com 1.10,2013-03-04 10:30:00,
2013-03-04 05:45:00,35.6,36.0,30.17,West,279,0.0,-999.0,100,-99.99,,,0.00,0,weatherlink.com 1.10,2013-03-04 10:45:00,
2013-03-04 06:00:00,34.9,35.0,30.17,West,279,0.0,-999.0,100,-99.99,,,0.00,0,weatherlink.com 1.10,2013-03-04 11:00:00,
2013-03-04 06:15:00,34.4,34.0,30.18,West,279,0.0,-999.0,100,-99.99,,,0.00,0,weatherlink.com 1.10,2013-03-04 11:15:00,
2013-03-04 06:30:00,34.4,34.0,30.18,West,279,0.0,-999.0,100,-99.99,,,0.00,0,weatherlink.com 1.10,2013-03-04 11:30:00,
2013-03-04 06:45:00,34.3,34.0,30.19,West,279,0.0,-999.0,100,-99.99,,,0.00,0,weatherlink.com 1.10,2013-03-04 11:45:00,
2013-03-04 07:00:00,33.4,33.0,30.18,West,279,0.0,-999.0,100,-99.99,,,0.00,11,weatherlink.com 1.10,2013-03-04 12:00:00,
2013-03-04 07:15:00,34.1,34.0,30.20,West,279,0.0,-999.0,100,-99.99,,,0.00,21,weatherlink.com 1.10,2013-03-04 12:15:00,
2013-03-04 07:30:00,36.9,37.0,30.20,West,279,0.0,-999.0,100,-99.99,,,0.00,65,weatherlink.com 1.10,2013-03-04 12:30:00,
2013-03-04 07:45:00,38.0,38.0,30.21,West,279,0.0,-999.0,100,-99.99,,,0.00,111,weatherlink.com 1.10,2013-03-04 12:45:00,
2013-03-04 08:00:00,39.2,39.0,30.21,West,279,0.0,-999.0,100,-99.99,,,0.00,155,weatherlink.com 1.10,2013-03-04 13:00:00,
2013-03-04 08:15:00,40.1,40.0,30.23,West,279,0.0,-999.0,100,-99.99,,,0.00,197,weatherlink.com 1.10,2013-03-04 13:15:00,
2013-03-04 08:30:00,39.8,40.0,30.23,NNE,28,0.0,-999.0,100,-99.99,,,0.00,250,weatherlink.com 1.10,2013-03-04 13:30:00,
2013-03-04 08:45:00,40.5,38.0,30.23,ENE,58,1.0,-999.0,92,-99.99,,,0.00,304,weatherlink.com 1.10,2013-03-04 13:45:00,
2013-03-04 09:00:00,41.9,33.0,30.23,NNE,28,2.0,-999.0,72,-99.99,,,0.00,371,weatherlink.com 1.10,2013-03-04 14:00:00,
2013-03-04 09:15:00,43.9,31.0,30.23,NNE,16,1.0,-999.0,60,-99.99,,,0.00,422,weatherlink.com 1.10,2013-03-04 14:15:00,
2013-03-04 09:30:00,48.8,31.0,30.23,NE,34,3.0,-999.0,50,-99.99,,,0.00,478,weatherlink.com 1.10,2013-03-04 14:30:00,
2013-03-04 09:45:00,50.4,29.0,30.21,WNW,282,2.0,-999.0,44,-99.99,,,0.00,524,weatherlink.com 1.10,2013-03-04 14:45:00,
2013-03-04 10:00:00,51.6,28.0,30.21,NNE,13,2.0,-999.0,41,-99.99,,,0.00,573,weatherlink.com 1.10,2013-03-04 15:00:00,
2013-03-04 10:15:00,53.1,29.0,30.20,NE,46,4.0,-999.0,40,-99.99,,,0.00,617,weatherlink.com 1.10,2013-03-04 15:15:00,
2013-03-04 10:30:00,53.6,28.0,30.20,North,355,0.0,-999.0,38,-99.99,,,0.00,656,weatherlink.com 1.10,2013-03-04 15:30:00,
2013-03-04 10:45:00,53.8,29.0,30.19,ENE,78,7.0,-999.0,39,-99.99,,,0.00,694,weatherlink.com 1.10,2013-03-04 15:45:00,
2013-03-04 11:00:00,53.6,27.0,30.20,ENE,77,0.0,-999.0,36,-99.99,,,0.00,728,weatherlink.com 1.10,2013-03-04 16:00:00,
2013-03-04 11:15:00,55.3,29.0,30.19,East,86,3.0,-999.0,37,-99.99,,,0.00,759,weatherlink.com 1.10,2013-03-04 16:15:00,
2013-03-04 11:30:00,55.9,26.0,30.19,ENE,63,0.0,-999.0,32,-99.99,,,0.00,784,weatherlink.com 1.10,2013-03-04 16:30:00,
2013-03-04 11:45:00,56.6,29.0,30.18,NW,309,0.0,-999.0,35,-99.99,,,0.00,810,weatherlink.com 1.10,2013-03-04 16:45:00,
2013-03-04 12:00:00,56.9,26.0,30.17,WNW,298,9.0,-999.0,30,-99.99,,,0.00,826,weatherlink.com 1.10,2013-03-04 17:00:00,
2013-03-04 12:15:00,57.5,25.0,30.18,ENE,60,2.0,-999.0,29,-99.99,,,0.00,842,weatherlink.com 1.10,2013-03-04 17:15:00,
2013-03-04 12:30:00,58.3,25.0,30.17,NE,45,7.0,-999.0,28,-99.99,,,0.00,854,weatherlink.com 1.10,2013-03-04 17:30:00,
2013-03-04 12:45:00,58.9,28.0,30.16,WNW,286,0.0,-999.0,31,-99.99,,,0.00,858,weatherlink.com 1.10,2013-03-04 17:45:00,
2013-03-04 13:00:00,59.8,27.0,30.16,NNE,17,0.0,-999.0,29,-99.99,,,0.00,860,weatherlink.com 1.10,2013-03-04 18:00:00,
2013-03-04 13:15:00,60.5,31.0,30.15,WNW,302,5.0,-999.0,33,-99.99,,,0.00,860,weatherlink.com 1.10,2013-03-04 18:15:00,
2013-03-04 13:30:00,61.0,27.0,30.14,WNW,284,7.0,-999.0,27,-99.99,,,0.00,847,weatherlink.com 1.10,2013-03-04 18:30:00,
2013-03-04 13:45:00,61.8,27.0,30.13,ESE,103,6.0,-999.0,27,-99.99,,,0.00,837,weatherlink.com 1.10,2013-03-04 18:45:00,
2013-03-04 14:00:00,62.6,28.0,30.12,NNE,28,4.0,-999.0,27,-99.99,,,0.00,819,weatherlink.com 1.10,2013-03-04 19:00:00,
2013-03-04 14:15:00,63.4,29.0,30.11,SSE,168,0.0,-999.0,27,-99.99,,,0.00,795,weatherlink.com 1.10,2013-03-04 19:15:00,
2013-03-04 14:30:00,64.0,28.0,30.11,NNE,17,5.0,-999.0,26,-99.99,,,0.00,772,weatherlink.com 1.10,2013-03-04 19:30:00,
2013-03-04 14:46:00,64.2,28.0,30.11,NNE,22,2.0,-999.0,25,-99.99,,,0.00,744,weatherlink.com 1.10,2013-03-04 19:46:00,
2013-03-04 15:00:00,65.2,28.0,30.11,ENE,57,4.0,-999.0,25,-99.99,,,0.00,708,weatherlink.com 1.10,2013-03-04 20:00:00,
2013-03-04 15:15:00,65.6,30.0,30.11,SSE,166,4.0,-999.0,26,-99.99,,,0.00,671,weatherlink.com 1.10,2013-03-04 20:15:00,
2013-03-04 15:30:00,65.8,30.0,30.11,NNW,327,1.0,-999.0,26,-99.99,,,0.00,635,weatherlink.com 1.10,2013-03-04 20:30:00,
2013-03-04 15:46:00,65.3,28.0,30.11,NW,307,0.0,-999.0,25,-99.99,,,0.00,587,weatherlink.com 1.10,2013-03-04 20:46:00,
2013-03-04 16:00:00,65.8,29.0,30.10,ENE,58,4.0,-999.0,25,-99.99,,,0.00,543,weatherlink.com 1.10,2013-03-04 21:00:00,
2013-03-04 16:16:00,66.4,28.0,30.10,ENE,74,3.0,-999.0,24,-99.99,,,0.00,489,weatherlink.com 1.10,2013-03-04 21:16:00,
2013-03-04 16:30:00,66.0,28.0,30.10,SE,131,0.0,-999.0,24,-99.99,,,0.00,443,weatherlink.com 1.10,2013-03-04 21:30:00,
2013-03-04 16:45:00,66.3,28.0,30.11,NNE,17,2.0,-999.0,24,-99.99,,,0.00,388,weatherlink.com 1.10,2013-03-04 21:45:00,
2013-03-04 17:00:00,66.3,29.0,30.10,NNE,18,0.0,-999.0,25,-99.99,,,0.00,330,weatherlink.com 1.10,2013-03-04 22:00:00,
2013-03-04 17:15:00,66.3,29.0,30.11,South,175,0.0,-999.0,25,-99.99,,,0.00,278,weatherlink.com 1.10,2013-03-04 22:15:00,
2013-03-04 17:30:00,66.3,28.0,30.11,SE,137,0.0,-999.0,24,-99.99,,,0.00,200,weatherlink.com 1.10,2013-03-04 22:30:00,
2013-03-04 17:45:00,65.5,29.0,30.11,SE,144,0.0,-999.0,25,-99.99,,,0.00,146,weatherlink.com 1.10,2013-03-04 22:45:00,
2013-03-04 18:01:00,66.4,30.0,30.12,SE,144,0.0,-999.0,26,-99.99,,,0.00,28,weatherlink.com 1.10,2013-03-04 23:01:00,
2013-03-04 18:15:00,63.5,31.0,30.13,SE,144,0.0,-999.0,29,-99.99,,,0.00,14,weatherlink.com 1.10,2013-03-04 23:15:00,
2013-03-04 18:30:00,60.2,32.0,30.13,SE,144,0.0,-999.0,35,-99.99,,,0.00,5,weatherlink.com 1.10,2013-03-04 23:30:00,
2013-03-04 18:45:00,57.6,33.0,30.13,SE,144,0.0,-999.0,39,-99.99,,,0.00,0,weatherlink.com 1.10,2013-03-04 23:45:00,
2013-03-04 19:00:00,55.9,33.0,30.14,SE,144,0.0,-999.0,42,-99.99,,,0.00,0,weatherlink.com 1.10,2013-03-05 00:00:00,
2013-03-04 19:15:00,54.2,34.0,30.13,SE,144,0.0,-999.0,47,-99.99,,,0.00,0,weatherlink.com 1.10,2013-03-05 00:15:00,
2013-03-04 19:30:00,52.8,35.0,30.13,SE,144,0.0,-999.0,51,-99.99,,,0.00,0,weatherlink.com 1.10,2013-03-05 00:30:00,
2013-03-04 19:45:00,51.6,35.0,30.14,SE,144,0.0,-999.0,54,-99.99,,,0.00,0,weatherlink.com 1.10,2013-03-05 00:45:00,
2013-03-04 20:00:00,50.4,36.0,30.14,SE,144,0.0,-999.0,58,-99.99,,,0.00,0,weatherlink.com 1.10,2013-03-05 01:00:00,
2013-03-04 20:15:00,49.5,36.0,30.14,SE,144,0.0,-999.0,59,-99.99,,,0.00,0,weatherlink.com 1.10,2013-03-05 01:15:00,
2013-03-04 20:30:00,49.4,36.0,30.15,SE,144,0.0,-999.0,61,-99.99,,,0.00,0,weatherlink.com 1.10,2013-03-05 01:30:00,
2013-03-04 20:45:00,49.6,37.0,30.15,SE,144,0.0,-999.0,63,-99.99,,,0.00,0,weatherlink.com 1.10,2013-03-05 01:45:00,
2013-03-04 21:01:00,48.6,38.0,30.14,SE,144,0.0,-999.0,67,-99.99,,,0.00,0,weatherlink.com 1.10,2013-03-05 02:01:00,
2013-03-04 21:15:00,47.7,38.0,30.15,SE,144,0.0,-999.0,70,-99.99,,,0.00,0,weatherlink.com 1.10,2013-03-05 02:15:00,
2013-03-04 21:30:00,47.3,39.0,30.16,SE,144,0.0,-999.0,72,-99.99,,,0.00,0,weatherlink.com 1.10,2013-03-05 02:30:00,
2013-03-04 21:45:00,47.0,39.0,30.16,SE,144,0.0,-999.0,74,-99.99,,,0.00,0,weatherlink.com 1.10,2013-03-05 02:45:00,
2013-03-04 22:00:00,47.0,39.0,30.16,SE,144,0.0,-999.0,75,-99.99,,,0.00,0,weatherlink.com 1.10,2013-03-05 03:00:00,
2013-03-04 22:15:00,46.4,40.0,30.17,SE,144,0.0,-999.0,78,-99.99,,,0.00,0,weatherlink.com 1.10,2013-03-05 03:15:00,
2013-03-04 22:30:00,45.7,40.0,30.17,SE,144,0.0,-999.0,79,-99.99,,,0.00,0,weatherlink.com 1.10,2013-03-05 03:30:00,
2013-03-04 22:45:00,45.4,38.0,30.18,SSE,160,0.0,-999.0,76,-99.99,,,0.00,0,weatherlink.com 1.10,2013-03-05 03:45:00,
2013-03-04 23:00:00,45.1,38.0,30.17,SSE,160,0.0,-999.0,77,-99.99,,,0.00,0,weatherlink.com 1.10,2013-03-05 04:00:00,
2013-03-04 23:15:00,44.8,38.0,30.17,SSE,160,0.0,-999.0,77,-99.99,,,0.00,0,weatherlink.com 1.10,2013-03-05 04:15:00,
2013-03-04 23:30:00,45.1,38.0,30.17,SSE,160,0.0,-999.0,77,-99.99,,,0.00,0,weatherlink.com 1.10,2013-03-05 04:30:00,
2013-03-04 23:45:00,45.5,38.0,30.16,SSE,160,0.0,-999.0,75,-99.99,,,0.00,0,weatherlink.com 1.10,2013-03-05 04:45:00,